sensor_id;sensor_type;location;lat;lon;timestamp;P1;durP1;ratioP1;P2;durP2;ratioP2
56045;SDS011;41913;51.030;3.706;2023-06-14T00:01:45;13.70;;;3.92;;
56045;SDS011;41913;51.030;3.706;2023-06-14T00:04:11;6.03;;;3.63;;
56045;SDS011;41913;51.030;3.706;2023-06-14T00:06:37;10.25;;;3.65;;
56045;SDS011;41913;51.030;3.706;2023-06-14T00:09:04;11.90;;;3.13;;
56045;SDS011;41913;51.030;3.706;2023-06-14T00:11:32;24.45;;;5.07;;
56045;SDS011;41913;51.030;3.706;2023-06-14T00:13:58;15.10;;;3.72;;
56045;SDS011;41913;51.030;3.706;2023-06-14T00:16:24;7.88;;;3.55;;
56045;SDS011;41913;51.030;3.706;2023-06-14T00:18:49;6.60;;;2.90;;
56045;SDS011;41913;51.030;3.706;2023-06-14T00:21:17;8.40;;;3.22;;
56045;SDS011;41913;51.030;3.706;2023-06-14T00:23:43;11.98;;;3.88;;
56045;SDS011;41913;51.030;3.706;2023-06-14T00:26:08;14.82;;;3.75;;
56045;SDS011;41913;51.030;3.706;2023-06-14T00:28:34;8.90;;;3.58;;
56045;SDS011;41913;51.030;3.706;2023-06-14T00:31:00;7.90;;;2.88;;
56045;SDS011;41913;51.030;3.706;2023-06-14T00:33:25;6.40;;;3.10;;
56045;SDS011;41913;51.030;3.706;2023-06-14T00:35:51;5.45;;;3.38;;
56045;SDS011;41913;51.030;3.706;2023-06-14T00:38:19;5.95;;;3.15;;
56045;SDS011;41913;51.030;3.706;2023-06-14T00:40:46;3.42;;;3.10;;
56045;SDS011;41913;51.030;3.706;2023-06-14T00:43:11;6.10;;;3.88;;
56045;SDS011;41913;51.030;3.706;2023-06-14T00:45:37;4.80;;;3.30;;
56045;SDS011;41913;51.030;3.706;2023-06-14T00:48:03;5.95;;;3.42;;
56045;SDS011;41913;51.030;3.706;2023-06-14T00:50:31;9.40;;;4.38;;
56045;SDS011;41913;51.030;3.706;2023-06-14T00:52:58;6.82;;;3.20;;
56045;SDS011;41913;51.030;3.706;2023-06-14T00:55:25;3.10;;;2.90;;
56045;SDS011;41913;51.030;3.706;2023-06-14T00:57:53;5.68;;;3.20;;
56045;SDS011;41913;51.030;3.706;2023-06-14T01:00:20;4.80;;;3.47;;
56045;SDS011;41913;51.030;3.706;2023-06-14T01:02:46;6.38;;;3.00;;
56045;SDS011;41913;51.030;3.706;2023-06-14T01:05:11;3.72;;;3.15;;
56045;SDS011;41913;51.030;3.706;2023-06-14T01:10:20;9.60;;;4.05;;
56045;SDS011;41913;51.030;3.706;2023-06-14T01:15:36;6.85;;;3.35;;
56045;SDS011;41913;51.030;3.706;2023-06-14T01:18:03;4.28;;;3.40;;
56045;SDS011;41913;51.030;3.706;2023-06-14T01:20:29;3.22;;;3.03;;
56045;SDS011;41913;51.030;3.706;2023-06-14T01:22:58;5.03;;;3.25;;
56045;SDS011;41913;51.030;3.706;2023-06-14T01:25:25;5.90;;;3.70;;
56045;SDS011;41913;51.030;3.706;2023-06-14T01:30:23;4.65;;;4.18;;
56045;SDS011;41913;51.030;3.706;2023-06-14T01:32:50;7.75;;;3.63;;
56045;SDS011;41913;51.030;3.706;2023-06-14T01:35:17;8.60;;;3.80;;
56045;SDS011;41913;51.030;3.706;2023-06-14T01:37:43;3.72;;;3.40;;
56045;SDS011;41913;51.030;3.706;2023-06-14T01:40:12;4.40;;;3.67;;
56045;SDS011;41913;51.030;3.706;2023-06-14T01:42:39;6.18;;;4.18;;
56045;SDS011;41913;51.030;3.706;2023-06-14T01:45:07;4.30;;;3.60;;
56045;SDS011;41913;51.030;3.706;2023-06-14T01:47:36;6.70;;;3.95;;
56045;SDS011;41913;51.030;3.706;2023-06-14T01:50:02;14.18;;;4.25;;
56045;SDS011;41913;51.030;3.706;2023-06-14T01:52:29;3.85;;;3.55;;
56045;SDS011;41913;51.030;3.706;2023-06-14T01:54:54;4.43;;;3.42;;
56045;SDS011;41913;51.030;3.706;2023-06-14T01:57:20;5.35;;;4.10;;
56045;SDS011;41913;51.030;3.706;2023-06-14T01:59:47;4.28;;;3.60;;
56045;SDS011;41913;51.030;3.706;2023-06-14T02:02:14;4.95;;;4.30;;
56045;SDS011;41913;51.030;3.706;2023-06-14T02:04:40;4.15;;;3.90;;
56045;SDS011;41913;51.030;3.706;2023-06-14T02:07:07;7.28;;;4.03;;
56045;SDS011;41913;51.030;3.706;2023-06-14T02:09:34;6.57;;;3.65;;
56045;SDS011;41913;51.030;3.706;2023-06-14T02:12:00;5.38;;;3.95;;
56045;SDS011;41913;51.030;3.706;2023-06-14T02:14:26;7.65;;;3.50;;
56045;SDS011;41913;51.030;3.706;2023-06-14T02:16:52;4.68;;;3.92;;
56045;SDS011;41913;51.030;3.706;2023-06-14T02:19:18;7.18;;;4.00;;
56045;SDS011;41913;51.030;3.706;2023-06-14T02:21:45;11.15;;;3.88;;
56045;SDS011;41913;51.030;3.706;2023-06-14T02:24:12;10.23;;;4.63;;
56045;SDS011;41913;51.030;3.706;2023-06-14T02:26:38;4.35;;;3.90;;
56045;SDS011;41913;51.030;3.706;2023-06-14T02:29:04;4.75;;;3.90;;
56045;SDS011;41913;51.030;3.706;2023-06-14T02:31:31;4.15;;;3.75;;
56045;SDS011;41913;51.030;3.706;2023-06-14T02:33:58;6.28;;;4.18;;
56045;SDS011;41913;51.030;3.706;2023-06-14T02:36:23;7.35;;;4.65;;
56045;SDS011;41913;51.030;3.706;2023-06-14T02:38:50;9.27;;;4.18;;
56045;SDS011;41913;51.030;3.706;2023-06-14T02:41:15;7.35;;;4.10;;
56045;SDS011;41913;51.030;3.706;2023-06-14T02:43:41;6.78;;;3.53;;
56045;SDS011;41913;51.030;3.706;2023-06-14T02:46:08;8.15;;;3.45;;
56045;SDS011;41913;51.030;3.706;2023-06-14T02:48:33;4.22;;;3.92;;
56045;SDS011;41913;51.030;3.706;2023-06-14T02:50:59;4.22;;;3.83;;
56045;SDS011;41913;51.030;3.706;2023-06-14T02:53:25;4.75;;;4.40;;
56045;SDS011;41913;51.030;3.706;2023-06-14T02:55:50;5.28;;;3.80;;
56045;SDS011;41913;51.030;3.706;2023-06-14T02:58:17;4.65;;;4.00;;
56045;SDS011;41913;51.030;3.706;2023-06-14T03:00:44;5.65;;;4.00;;
56045;SDS011;41913;51.030;3.706;2023-06-14T03:03:10;4.43;;;3.95;;
56045;SDS011;41913;51.030;3.706;2023-06-14T03:05:48;6.22;;;3.92;;
56045;SDS011;41913;51.030;3.706;2023-06-14T03:08:17;6.38;;;3.75;;
56045;SDS011;41913;51.030;3.706;2023-06-14T03:10:48;3.90;;;3.60;;
56045;SDS011;41913;51.030;3.706;2023-06-14T03:13:14;6.95;;;4.03;;
56045;SDS011;41913;51.030;3.706;2023-06-14T03:15:41;6.32;;;4.05;;
56045;SDS011;41913;51.030;3.706;2023-06-14T03:18:08;6.70;;;3.78;;
56045;SDS011;41913;51.030;3.706;2023-06-14T03:20:35;4.90;;;3.92;;
56045;SDS011;41913;51.030;3.706;2023-06-14T03:23:01;5.22;;;4.05;;
56045;SDS011;41913;51.030;3.706;2023-06-14T03:25:28;5.38;;;3.55;;
56045;SDS011;41913;51.030;3.706;2023-06-14T03:27:55;5.20;;;4.55;;
56045;SDS011;41913;51.030;3.706;2023-06-14T03:30:21;4.43;;;3.63;;
56045;SDS011;41913;51.030;3.706;2023-06-14T03:32:46;4.32;;;3.90;;
56045;SDS011;41913;51.030;3.706;2023-06-14T03:35:12;5.60;;;3.97;;
56045;SDS011;41913;51.030;3.706;2023-06-14T03:37:45;3.85;;;3.55;;
56045;SDS011;41913;51.030;3.706;2023-06-14T03:40:12;8.27;;;4.68;;
56045;SDS011;41913;51.030;3.706;2023-06-14T03:42:39;7.03;;;4.63;;
56045;SDS011;41913;51.030;3.706;2023-06-14T03:45:05;4.28;;;3.97;;
56045;SDS011;41913;51.030;3.706;2023-06-14T03:47:32;3.70;;;3.40;;
56045;SDS011;41913;51.030;3.706;2023-06-14T03:49:58;5.97;;;3.58;;
56045;SDS011;41913;51.030;3.706;2023-06-14T03:52:25;6.60;;;3.70;;
56045;SDS011;41913;51.030;3.706;2023-06-14T03:54:51;4.30;;;3.88;;
56045;SDS011;41913;51.030;3.706;2023-06-14T03:57:17;5.30;;;4.15;;
56045;SDS011;41913;51.030;3.706;2023-06-14T03:59:43;4.72;;;3.95;;
56045;SDS011;41913;51.030;3.706;2023-06-14T04:02:08;4.00;;;3.15;;
56045;SDS011;41913;51.030;3.706;2023-06-14T04:04:34;5.63;;;3.92;;
56045;SDS011;41913;51.030;3.706;2023-06-14T04:07:00;4.53;;;4.07;;
56045;SDS011;41913;51.030;3.706;2023-06-14T04:09:31;4.80;;;4.40;;
56045;SDS011;41913;51.030;3.706;2023-06-14T04:11:56;11.57;;;4.32;;
56045;SDS011;41913;51.030;3.706;2023-06-14T04:14:22;4.85;;;4.45;;
56045;SDS011;41913;51.030;3.706;2023-06-14T04:16:48;8.00;;;3.90;;
56045;SDS011;41913;51.030;3.706;2023-06-14T04:19:14;6.18;;;4.28;;
56045;SDS011;41913;51.030;3.706;2023-06-14T04:21:41;3.83;;;3.55;;
56045;SDS011;41913;51.030;3.706;2023-06-14T04:24:07;7.30;;;3.80;;
56045;SDS011;41913;51.030;3.706;2023-06-14T04:26:38;4.53;;;4.07;;
56045;SDS011;41913;51.030;3.706;2023-06-14T04:29:04;5.18;;;3.80;;
56045;SDS011;41913;51.030;3.706;2023-06-14T04:31:31;3.92;;;3.55;;
56045;SDS011;41913;51.030;3.706;2023-06-14T04:34:02;5.93;;;3.95;;
56045;SDS011;41913;51.030;3.706;2023-06-14T04:36:32;3.97;;;3.45;;
56045;SDS011;41913;51.030;3.706;2023-06-14T04:39:06;3.85;;;3.60;;
56045;SDS011;41913;51.030;3.706;2023-06-14T04:41:33;4.80;;;3.72;;
56045;SDS011;41913;51.030;3.706;2023-06-14T04:44:00;4.97;;;3.85;;
56045;SDS011;41913;51.030;3.706;2023-06-14T04:46:29;4.30;;;3.55;;
56045;SDS011;41913;51.030;3.706;2023-06-14T04:48:57;4.78;;;3.95;;
56045;SDS011;41913;51.030;3.706;2023-06-14T04:51:23;4.22;;;3.45;;
56045;SDS011;41913;51.030;3.706;2023-06-14T04:53:55;4.87;;;3.43;;
56045;SDS011;41913;51.030;3.706;2023-06-14T04:56:23;4.70;;;3.28;;
56045;SDS011;41913;51.030;3.706;2023-06-14T04:58:51;4.45;;;4.07;;
56045;SDS011;41913;51.030;3.706;2023-06-14T05:01:19;4.35;;;4.00;;
56045;SDS011;41913;51.030;3.706;2023-06-14T05:03:46;15.95;;;4.50;;
56045;SDS011;41913;51.030;3.706;2023-06-14T05:06:14;3.92;;;3.45;;
56045;SDS011;41913;51.030;3.706;2023-06-14T05:08:40;6.38;;;3.85;;
56045;SDS011;41913;51.030;3.706;2023-06-14T05:11:06;7.40;;;3.88;;
56045;SDS011;41913;51.030;3.706;2023-06-14T05:13:32;7.90;;;3.42;;
56045;SDS011;41913;51.030;3.706;2023-06-14T05:15:58;3.72;;;3.42;;
56045;SDS011;41913;51.030;3.706;2023-06-14T05:18:25;8.43;;;3.45;;
56045;SDS011;41913;51.030;3.706;2023-06-14T05:20:51;5.30;;;4.03;;
56045;SDS011;41913;51.030;3.706;2023-06-14T05:23:16;4.95;;;3.47;;
56045;SDS011;41913;51.030;3.706;2023-06-14T05:25:43;7.25;;;3.63;;
56045;SDS011;41913;51.030;3.706;2023-06-14T05:28:09;4.05;;;3.60;;
56045;SDS011;41913;51.030;3.706;2023-06-14T05:30:35;16.88;;;4.55;;
56045;SDS011;41913;51.030;3.706;2023-06-14T05:33:01;13.55;;;4.40;;
56045;SDS011;41913;51.030;3.706;2023-06-14T05:35:26;10.40;;;4.57;;
56045;SDS011;41913;51.030;3.706;2023-06-14T05:37:52;11.23;;;5.35;;
56045;SDS011;41913;51.030;3.706;2023-06-14T05:40:19;8.45;;;4.60;;
56045;SDS011;41913;51.030;3.706;2023-06-14T05:42:45;15.23;;;4.53;;
56045;SDS011;41913;51.030;3.706;2023-06-14T05:45:11;39.40;;;6.88;;
56045;SDS011;41913;51.030;3.706;2023-06-14T05:47:37;51.55;;;10.02;;
56045;SDS011;41913;51.030;3.706;2023-06-14T05:50:03;15.18;;;6.03;;
56045;SDS011;41913;51.030;3.706;2023-06-14T05:52:29;13.00;;;4.72;;
56045;SDS011;41913;51.030;3.706;2023-06-14T05:54:56;11.25;;;5.55;;
56045;SDS011;41913;51.030;3.706;2023-06-14T05:57:22;8.50;;;4.75;;
56045;SDS011;41913;51.030;3.706;2023-06-14T05:59:47;9.18;;;4.70;;
56045;SDS011;41913;51.030;3.706;2023-06-14T06:02:14;11.65;;;5.47;;
56045;SDS011;41913;51.030;3.706;2023-06-14T06:04:40;5.90;;;4.72;;
56045;SDS011;41913;51.030;3.706;2023-06-14T06:07:06;8.00;;;4.32;;
56045;SDS011;41913;51.030;3.706;2023-06-14T06:09:32;8.40;;;4.30;;
56045;SDS011;41913;51.030;3.706;2023-06-14T06:11:58;10.98;;;5.10;;
56045;SDS011;41913;51.030;3.706;2023-06-14T06:14:23;9.38;;;4.45;;
56045;SDS011;41913;51.030;3.706;2023-06-14T06:16:50;7.03;;;4.88;;
56045;SDS011;41913;51.030;3.706;2023-06-14T06:19:17;16.45;;;5.97;;
56045;SDS011;41913;51.030;3.706;2023-06-14T06:21:43;5.90;;;5.13;;
56045;SDS011;41913;51.030;3.706;2023-06-14T06:24:09;5.65;;;4.90;;
56045;SDS011;41913;51.030;3.706;2023-06-14T06:26:35;9.25;;;5.47;;
56045;SDS011;41913;51.030;3.706;2023-06-14T06:29:01;6.18;;;4.72;;
56045;SDS011;41913;51.030;3.706;2023-06-14T06:31:27;11.25;;;5.15;;
56045;SDS011;41913;51.030;3.706;2023-06-14T06:33:53;8.40;;;5.15;;
56045;SDS011;41913;51.030;3.706;2023-06-14T06:36:20;5.57;;;4.90;;
56045;SDS011;41913;51.030;3.706;2023-06-14T06:38:47;5.50;;;4.45;;
56045;SDS011;41913;51.030;3.706;2023-06-14T06:41:13;9.73;;;4.50;;
56045;SDS011;41913;51.030;3.706;2023-06-14T06:43:38;7.00;;;4.65;;
56045;SDS011;41913;51.030;3.706;2023-06-14T06:46:05;9.60;;;5.35;;
56045;SDS011;41913;51.030;3.706;2023-06-14T06:48:31;8.35;;;5.13;;
56045;SDS011;41913;51.030;3.706;2023-06-14T06:50:56;10.63;;;4.90;;
56045;SDS011;41913;51.030;3.706;2023-06-14T06:53:22;5.25;;;4.40;;
56045;SDS011;41913;51.030;3.706;2023-06-14T06:55:48;11.80;;;4.75;;
56045;SDS011;41913;51.030;3.706;2023-06-14T06:58:13;9.63;;;5.10;;
56045;SDS011;41913;51.030;3.706;2023-06-14T07:00:39;4.43;;;4.03;;
56045;SDS011;41913;51.030;3.706;2023-06-14T07:03:06;7.55;;;4.50;;
56045;SDS011;41913;51.030;3.706;2023-06-14T07:05:32;7.78;;;3.63;;
56045;SDS011;41913;51.030;3.706;2023-06-14T07:07:57;7.45;;;3.97;;
56045;SDS011;41913;51.030;3.706;2023-06-14T07:10:24;11.63;;;4.75;;
56045;SDS011;41913;51.030;3.706;2023-06-14T07:12:50;5.38;;;4.20;;
56045;SDS011;41913;51.030;3.706;2023-06-14T07:15:16;8.93;;;4.47;;
56045;SDS011;41913;51.030;3.706;2023-06-14T07:17:42;8.98;;;4.13;;
56045;SDS011;41913;51.030;3.706;2023-06-14T07:20:08;4.55;;;4.13;;
56045;SDS011;41913;51.030;3.706;2023-06-14T07:22:41;4.72;;;4.25;;
56045;SDS011;41913;51.030;3.706;2023-06-14T07:25:08;7.75;;;4.38;;
56045;SDS011;41913;51.030;3.706;2023-06-14T07:27:40;6.85;;;3.92;;
56045;SDS011;41913;51.030;3.706;2023-06-14T07:30:07;6.68;;;3.53;;
56045;SDS011;41913;51.030;3.706;2023-06-14T07:32:34;7.32;;;4.55;;
56045;SDS011;41913;51.030;3.706;2023-06-14T07:34:59;5.03;;;4.63;;
56045;SDS011;41913;51.030;3.706;2023-06-14T07:37:25;7.18;;;4.03;;
56045;SDS011;41913;51.030;3.706;2023-06-14T07:39:51;9.93;;;3.80;;
56045;SDS011;41913;51.030;3.706;2023-06-14T07:42:16;8.10;;;4.68;;
56045;SDS011;41913;51.030;3.706;2023-06-14T07:44:42;7.35;;;3.92;;
56045;SDS011;41913;51.030;3.706;2023-06-14T07:47:08;5.20;;;4.45;;
56045;SDS011;41913;51.030;3.706;2023-06-14T07:49:34;5.32;;;4.07;;
56045;SDS011;41913;51.030;3.706;2023-06-14T07:51:59;11.68;;;3.60;;
56045;SDS011;41913;51.030;3.706;2023-06-14T07:54:25;7.07;;;4.20;;
56045;SDS011;41913;51.030;3.706;2023-06-14T07:56:51;4.93;;;4.50;;
56045;SDS011;41913;51.030;3.706;2023-06-14T07:59:17;5.10;;;4.22;;
56045;SDS011;41913;51.030;3.706;2023-06-14T08:01:43;5.70;;;3.90;;
56045;SDS011;41913;51.030;3.706;2023-06-14T08:04:13;5.78;;;4.13;;
56045;SDS011;41913;51.030;3.706;2023-06-14T08:06:39;5.95;;;4.25;;
56045;SDS011;41913;51.030;3.706;2023-06-14T08:09:09;4.80;;;3.78;;
56045;SDS011;41913;51.030;3.706;2023-06-14T08:11:36;4.57;;;4.18;;
56045;SDS011;41913;51.030;3.706;2023-06-14T08:14:01;4.03;;;3.72;;
56045;SDS011;41913;51.030;3.706;2023-06-14T08:16:27;4.65;;;4.20;;
56045;SDS011;41913;51.030;3.706;2023-06-14T08:18:53;10.40;;;3.97;;
56045;SDS011;41913;51.030;3.706;2023-06-14T08:21:20;3.78;;;3.47;;
56045;SDS011;41913;51.030;3.706;2023-06-14T08:23:45;4.65;;;4.25;;
56045;SDS011;41913;51.030;3.706;2023-06-14T08:26:11;7.75;;;4.47;;
56045;SDS011;41913;51.030;3.706;2023-06-14T08:28:37;6.68;;;4.30;;
56045;SDS011;41913;51.030;3.706;2023-06-14T08:31:02;6.80;;;4.35;;
56045;SDS011;41913;51.030;3.706;2023-06-14T08:33:28;6.30;;;3.83;;
56045;SDS011;41913;51.030;3.706;2023-06-14T08:35:54;4.32;;;3.90;;
56045;SDS011;41913;51.030;3.706;2023-06-14T08:38:19;4.47;;;4.07;;
56045;SDS011;41913;51.030;3.706;2023-06-14T08:40:47;4.35;;;3.95;;
56045;SDS011;41913;51.030;3.706;2023-06-14T08:43:17;4.82;;;3.72;;
56045;SDS011;41913;51.030;3.706;2023-06-14T08:45:43;7.05;;;4.53;;
56045;SDS011;41913;51.030;3.706;2023-06-14T08:48:12;11.18;;;4.30;;
56045;SDS011;41913;51.030;3.706;2023-06-14T08:50:42;4.85;;;4.38;;
56045;SDS011;41913;51.030;3.706;2023-06-14T08:53:11;4.57;;;4.20;;
56045;SDS011;41913;51.030;3.706;2023-06-14T08:55:45;4.93;;;3.63;;
56045;SDS011;41913;51.030;3.706;2023-06-14T08:58:12;5.13;;;4.43;;
56045;SDS011;41913;51.030;3.706;2023-06-14T09:00:39;6.13;;;4.43;;
56045;SDS011;41913;51.030;3.706;2023-06-14T09:03:06;4.72;;;3.65;;
56045;SDS011;41913;51.030;3.706;2023-06-14T09:05:38;6.03;;;4.57;;
56045;SDS011;41913;51.030;3.706;2023-06-14T09:08:04;5.40;;;4.00;;
56045;SDS011;41913;51.030;3.706;2023-06-14T09:10:31;4.80;;;4.25;;
56045;SDS011;41913;51.030;3.706;2023-06-14T09:13:02;4.77;;;3.77;;
56045;SDS011;41913;51.030;3.706;2023-06-14T09:15:30;5.30;;;4.35;;
56045;SDS011;41913;51.030;3.706;2023-06-14T09:17:56;5.03;;;4.22;;
56045;SDS011;41913;51.030;3.706;2023-06-14T09:20:23;5.70;;;4.20;;
56045;SDS011;41913;51.030;3.706;2023-06-14T09:22:49;4.32;;;4.00;;
56045;SDS011;41913;51.030;3.706;2023-06-14T09:25:16;4.60;;;4.15;;
56045;SDS011;41913;51.030;3.706;2023-06-14T09:27:43;5.93;;;4.20;;
56045;SDS011;41913;51.030;3.706;2023-06-14T09:30:10;4.82;;;4.38;;
56045;SDS011;41913;51.030;3.706;2023-06-14T09:32:37;6.05;;;4.03;;
56045;SDS011;41913;51.030;3.706;2023-06-14T09:35:07;4.80;;;4.10;;
56045;SDS011;41913;51.030;3.706;2023-06-14T09:37:33;3.85;;;3.40;;
56045;SDS011;41913;51.030;3.706;2023-06-14T09:40:00;5.70;;;3.63;;
56045;SDS011;41913;51.030;3.706;2023-06-14T09:42:27;5.60;;;3.72;;
56045;SDS011;41913;51.030;3.706;2023-06-14T09:44:54;4.43;;;3.70;;
56045;SDS011;41913;51.030;3.706;2023-06-14T09:47:21;6.07;;;3.75;;
56045;SDS011;41913;51.030;3.706;2023-06-14T09:49:48;3.35;;;3.15;;
56045;SDS011;41913;51.030;3.706;2023-06-14T09:52:19;3.65;;;3.35;;
56045;SDS011;41913;51.030;3.706;2023-06-14T09:54:45;4.38;;;3.50;;
56045;SDS011;41913;51.030;3.706;2023-06-14T09:57:13;3.45;;;3.25;;
56045;SDS011;41913;51.030;3.706;2023-06-14T09:59:44;3.15;;;3.00;;
56045;SDS011;41913;51.030;3.706;2023-06-14T10:02:31;3.13;;;2.90;;
56045;SDS011;41913;51.030;3.706;2023-06-14T10:05:06;3.70;;;3.40;;
56045;SDS011;41913;51.030;3.706;2023-06-14T10:10:20;4.60;;;3.40;;
56045;SDS011;41913;51.030;3.706;2023-06-14T10:12:46;3.08;;;2.88;;
56045;SDS011;41913;51.030;3.706;2023-06-14T10:21:04;3.63;;;3.10;;
56045;SDS011;41913;51.030;3.706;2023-06-14T10:23:37;4.65;;;3.28;;
56045;SDS011;41913;51.030;3.706;2023-06-14T10:26:06;6.72;;;3.95;;
56045;SDS011;41913;51.030;3.706;2023-06-14T10:28:32;3.80;;;3.50;;
56045;SDS011;41913;51.030;3.706;2023-06-14T10:31:05;5.15;;;3.28;;
56045;SDS011;41913;51.030;3.706;2023-06-14T10:33:35;3.20;;;3.00;;
56045;SDS011;41913;51.030;3.706;2023-06-14T10:36:23;3.25;;;3.13;;
56045;SDS011;41913;51.030;3.706;2023-06-14T10:41:39;3.55;;;3.03;;
56045;SDS011;41913;51.030;3.706;2023-06-14T10:44:13;3.50;;;3.20;;
56045;SDS011;41913;51.030;3.706;2023-06-14T10:46:58;3.92;;;3.60;;
56045;SDS011;41913;51.030;3.706;2023-06-14T10:49:44;3.40;;;3.20;;
56045;SDS011;41913;51.030;3.706;2023-06-14T10:52:17;3.03;;;2.83;;
56045;SDS011;41913;51.030;3.706;2023-06-14T10:55:06;4.88;;;3.45;;
56045;SDS011;41913;51.030;3.706;2023-06-14T10:57:39;3.35;;;3.15;;
56045;SDS011;41913;51.030;3.706;2023-06-14T11:00:09;3.38;;;3.05;;
56045;SDS011;41913;51.030;3.706;2023-06-14T11:05:50;3.60;;;3.38;;
56045;SDS011;41913;51.030;3.706;2023-06-14T11:11:18;5.00;;;3.10;;
56045;SDS011;41913;51.030;3.706;2023-06-14T11:13:48;3.63;;;3.33;;
56045;SDS011;41913;51.030;3.706;2023-06-14T11:16:17;5.32;;;3.33;;
56045;SDS011;41913;51.030;3.706;2023-06-14T11:18:46;3.55;;;3.25;;
56045;SDS011;41913;51.030;3.706;2023-06-14T11:21:15;3.67;;;3.42;;
56045;SDS011;41913;51.030;3.706;2023-06-14T11:23:53;3.85;;;3.35;;
56045;SDS011;41913;51.030;3.706;2023-06-14T11:26:24;3.85;;;3.20;;
56045;SDS011;41913;51.030;3.706;2023-06-14T11:28:57;3.80;;;3.60;;
56045;SDS011;41913;51.030;3.706;2023-06-14T11:31:24;5.47;;;3.28;;
56045;SDS011;41913;51.030;3.706;2023-06-14T11:33:53;3.97;;;2.90;;
56045;SDS011;41913;51.030;3.706;2023-06-14T11:36:20;3.65;;;3.47;;
56045;SDS011;41913;51.030;3.706;2023-06-14T11:38:46;4.15;;;3.22;;
56045;SDS011;41913;51.030;3.706;2023-06-14T11:41:11;7.60;;;3.50;;
56045;SDS011;41913;51.030;3.706;2023-06-14T11:43:37;7.05;;;3.25;;
56045;SDS011;41913;51.030;3.706;2023-06-14T11:46:04;13.27;;;3.72;;
56045;SDS011;41913;51.030;3.706;2023-06-14T11:48:45;5.38;;;3.47;;
56045;SDS011;41913;51.030;3.706;2023-06-14T11:51:11;4.10;;;3.70;;
56045;SDS011;41913;51.030;3.706;2023-06-14T11:53:37;3.63;;;3.33;;
56045;SDS011;41913;51.030;3.706;2023-06-14T11:56:06;9.48;;;3.17;;
56045;SDS011;41913;51.030;3.706;2023-06-14T11:58:32;4.60;;;3.50;;
56045;SDS011;41913;51.030;3.706;2023-06-14T12:00:58;5.28;;;2.95;;
56045;SDS011;41913;51.030;3.706;2023-06-14T12:03:24;4.82;;;4.18;;
56045;SDS011;41913;51.030;3.706;2023-06-14T12:06:01;8.85;;;3.67;;
56045;SDS011;41913;51.030;3.706;2023-06-14T12:08:38;12.80;;;3.75;;
56045;SDS011;41913;51.030;3.706;2023-06-14T12:11:05;6.53;;;3.53;;
56045;SDS011;41913;51.030;3.706;2023-06-14T12:13:33;3.80;;;3.40;;
56045;SDS011;41913;51.030;3.706;2023-06-14T12:15:59;5.32;;;3.25;;
56045;SDS011;41913;51.030;3.706;2023-06-14T12:18:34;4.18;;;3.58;;
56045;SDS011;41913;51.030;3.706;2023-06-14T12:21:01;3.08;;;2.88;;
56045;SDS011;41913;51.030;3.706;2023-06-14T12:23:49;6.10;;;3.15;;
56045;SDS011;41913;51.030;3.706;2023-06-14T12:26:16;3.00;;;2.80;;
56045;SDS011;41913;51.030;3.706;2023-06-14T12:28:47;3.50;;;3.20;;
56045;SDS011;41913;51.030;3.706;2023-06-14T12:31:14;2.60;;;2.50;;
56045;SDS011;41913;51.030;3.706;2023-06-14T12:33:41;4.65;;;3.03;;
56045;SDS011;41913;51.030;3.706;2023-06-14T12:36:07;4.28;;;3.35;;
56045;SDS011;41913;51.030;3.706;2023-06-14T12:38:35;2.90;;;2.70;;
56045;SDS011;41913;51.030;3.706;2023-06-14T12:41:01;3.83;;;3.22;;
56045;SDS011;41913;51.030;3.706;2023-06-14T12:43:27;3.05;;;2.90;;
56045;SDS011;41913;51.030;3.706;2023-06-14T12:45:53;3.40;;;2.88;;
56045;SDS011;41913;51.030;3.706;2023-06-14T12:48:19;4.78;;;3.28;;
56045;SDS011;41913;51.030;3.706;2023-06-14T12:50:45;4.68;;;2.50;;
56045;SDS011;41913;51.030;3.706;2023-06-14T12:53:12;2.70;;;2.55;;
56045;SDS011;41913;51.030;3.706;2023-06-14T12:55:38;3.08;;;2.75;;
56045;SDS011;41913;51.030;3.706;2023-06-14T12:58:04;4.00;;;3.58;;
56045;SDS011;41913;51.030;3.706;2023-06-14T13:00:29;4.82;;;2.65;;
56045;SDS011;41913;51.030;3.706;2023-06-14T13:02:55;4.35;;;3.10;;
56045;SDS011;41913;51.030;3.706;2023-06-14T13:05:22;4.68;;;2.80;;
56045;SDS011;41913;51.030;3.706;2023-06-14T13:07:48;2.78;;;2.60;;
56045;SDS011;41913;51.030;3.706;2023-06-14T13:10:13;4.70;;;3.05;;
56045;SDS011;41913;51.030;3.706;2023-06-14T13:12:39;2.97;;;2.70;;
56045;SDS011;41913;51.030;3.706;2023-06-14T13:15:05;3.30;;;2.55;;
56045;SDS011;41913;51.030;3.706;2023-06-14T13:17:34;5.22;;;2.67;;
56045;SDS011;41913;51.030;3.706;2023-06-14T13:20:06;2.40;;;2.30;;
56045;SDS011;41913;51.030;3.706;2023-06-14T13:22:33;2.97;;;2.78;;
56045;SDS011;41913;51.030;3.706;2023-06-14T13:24:59;2.85;;;2.75;;
56045;SDS011;41913;51.030;3.706;2023-06-14T13:27:25;3.40;;;2.60;;
56045;SDS011;41913;51.030;3.706;2023-06-14T13:29:51;3.08;;;2.88;;
56045;SDS011;41913;51.030;3.706;2023-06-14T13:32:17;5.65;;;2.90;;
56045;SDS011;41913;51.030;3.706;2023-06-14T13:34:43;2.88;;;2.78;;
56045;SDS011;41913;51.030;3.706;2023-06-14T13:37:09;2.42;;;2.33;;
56045;SDS011;41913;51.030;3.706;2023-06-14T13:39:34;2.55;;;2.35;;
56045;SDS011;41913;51.030;3.706;2023-06-14T13:42:02;2.92;;;2.63;;
56045;SDS011;41913;51.030;3.706;2023-06-14T13:44:28;2.60;;;2.50;;
56045;SDS011;41913;51.030;3.706;2023-06-14T13:46:54;4.88;;;2.85;;
56045;SDS011;41913;51.030;3.706;2023-06-14T13:49:20;2.85;;;2.65;;
56045;SDS011;41913;51.030;3.706;2023-06-14T13:51:45;7.00;;;2.63;;
56045;SDS011;41913;51.030;3.706;2023-06-14T13:54:14;2.47;;;2.38;;
56045;SDS011;41913;51.030;3.706;2023-06-14T13:56:44;2.72;;;2.63;;
56045;SDS011;41913;51.030;3.706;2023-06-14T13:59:10;2.85;;;2.65;;
56045;SDS011;41913;51.030;3.706;2023-06-14T14:01:36;2.83;;;2.65;;
56045;SDS011;41913;51.030;3.706;2023-06-14T14:04:01;2.30;;;2.20;;
56045;SDS011;41913;51.030;3.706;2023-06-14T14:06:28;3.15;;;2.95;;
56045;SDS011;41913;51.030;3.706;2023-06-14T14:08:54;2.92;;;2.72;;
56045;SDS011;41913;51.030;3.706;2023-06-14T14:11:20;3.15;;;2.83;;
56045;SDS011;41913;51.030;3.706;2023-06-14T14:13:45;3.10;;;2.90;;
56045;SDS011;41913;51.030;3.706;2023-06-14T14:16:12;2.83;;;2.63;;
56045;SDS011;41913;51.030;3.706;2023-06-14T14:18:38;2.60;;;2.40;;
56045;SDS011;41913;51.030;3.706;2023-06-14T14:21:05;3.38;;;3.13;;
56045;SDS011;41913;51.030;3.706;2023-06-14T14:23:31;2.90;;;2.67;;
56045;SDS011;41913;51.030;3.706;2023-06-14T14:25:56;3.90;;;2.38;;
56045;SDS011;41913;51.030;3.706;2023-06-14T14:28:22;3.28;;;2.75;;
56045;SDS011;41913;51.030;3.706;2023-06-14T14:30:48;7.35;;;2.47;;
56045;SDS011;41913;51.030;3.706;2023-06-14T14:33:14;2.70;;;2.60;;
56045;SDS011;41913;51.030;3.706;2023-06-14T14:35:42;3.28;;;2.20;;
56045;SDS011;41913;51.030;3.706;2023-06-14T14:38:10;2.13;;;2.03;;
56045;SDS011;41913;51.030;3.706;2023-06-14T14:40:36;3.50;;;2.75;;
56045;SDS011;41913;51.030;3.706;2023-06-14T14:43:02;2.58;;;2.40;;
56045;SDS011;41913;51.030;3.706;2023-06-14T14:45:28;3.13;;;2.92;;
56045;SDS011;41913;51.030;3.706;2023-06-14T14:47:54;2.45;;;2.30;;
56045;SDS011;41913;51.030;3.706;2023-06-14T14:50:19;2.63;;;2.50;;
56045;SDS011;41913;51.030;3.706;2023-06-14T14:52:45;2.40;;;2.30;;
56045;SDS011;41913;51.030;3.706;2023-06-14T14:55:11;2.30;;;2.20;;
56045;SDS011;41913;51.030;3.706;2023-06-14T14:57:37;2.67;;;2.47;;
56045;SDS011;41913;51.030;3.706;2023-06-14T15:00:05;2.58;;;2.47;;
56045;SDS011;41913;51.030;3.706;2023-06-14T15:02:31;2.33;;;2.22;;
56045;SDS011;41913;51.030;3.706;2023-06-14T15:04:57;3.13;;;2.60;;
56045;SDS011;41913;51.030;3.706;2023-06-14T15:07:30;4.40;;;2.90;;
56045;SDS011;41913;51.030;3.706;2023-06-14T15:09:56;2.60;;;2.50;;
56045;SDS011;41913;51.030;3.706;2023-06-14T15:12:22;2.10;;;2.00;;